sensor_id;sensor_type;location;lat;lon;timestamp;temperature;humidity
23713;DHT22;12035;49.978;8.298;2023-01-16T00:03:04;8.20;74.60
23713;DHT22;12035;49.978;8.298;2023-01-16T00:08:03;8.20;74.70
23713;DHT22;12035;49.978;8.298;2023-01-16T00:13:00;8.20;74.70
23713;DHT22;12035;49.978;8.298;2023-01-16T00:17:57;8.20;74.70
23713;DHT22;12035;49.978;8.298;2023-01-16T00:22:55;8.20;74.70
23713;DHT22;12035;49.978;8.298;2023-01-16T00:27:54;8.20;74.60
23713;DHT22;12035;49.978;8.298;2023-01-16T00:32:51;8.20;74.60
23713;DHT22;12035;49.978;8.298;2023-01-16T00:37:48;8.20;74.50
23713;DHT22;12035;49.978;8.298;2023-01-16T00:42:45;8.20;74.30
23713;DHT22;12035;49.978;8.298;2023-01-16T00:47:46;8.30;74.30
23713;DHT22;12035;49.978;8.298;2023-01-16T00:52:43;8.20;74.10
23713;DHT22;12035;49.978;8.298;2023-01-16T00:57:40;8.30;73.90
23713;DHT22;12035;49.978;8.298;2023-01-16T01:02:37;8.30;73.70
23713;DHT22;12035;49.978;8.298;2023-01-16T01:07:36;8.30;73.60
23713;DHT22;12035;49.978;8.298;2023-01-16T01:12:33;8.20;73.60
23713;DHT22;12035;49.978;8.298;2023-01-16T01:17:30;8.20;73.60
23713;DHT22;12035;49.978;8.298;2023-01-16T01:22:27;8.20;74.30
23713;DHT22;12035;49.978;8.298;2023-01-16T01:27:27;8.20;73.50
23713;DHT22;12035;49.978;8.298;2023-01-16T01:32:24;8.20;73.40
23713;DHT22;12035;49.978;8.298;2023-01-16T01:37:21;8.20;73.30
23713;DHT22;12035;49.978;8.298;2023-01-16T01:42:18;8.20;73.30
23713;DHT22;12035;49.978;8.298;2023-01-16T01:47:37;8.20;73.20
23713;DHT22;12035;49.978;8.298;2023-01-16T01:52:37;8.20;73.20
23713;DHT22;12035;49.978;8.298;2023-01-16T01:57:38;8.20;73.20
23713;DHT22;12035;49.978;8.298;2023-01-16T02:02:43;8.20;73.10
23713;DHT22;12035;49.978;8.298;2023-01-16T02:07:43;8.10;73.20
23713;DHT22;12035;49.978;8.298;2023-01-16T02:12:41;8.00;74.20
23713;DHT22;12035;49.978;8.298;2023-01-16T02:17:45;8.00;73.70
23713;DHT22;12035;49.978;8.298;2023-01-16T02:23:50;8.00;73.90
23713;DHT22;12035;49.978;8.298;2023-01-16T02:34:51;7.90;73.90
23713;DHT22;12035;49.978;8.298;2023-01-16T02:40:17;7.90;74.10
23713;DHT22;12035;49.978;8.298;2023-01-16T02:45:28;7.90;74.10
23713;DHT22;12035;49.978;8.298;2023-01-16T02:50:33;7.90;74.10
23713;DHT22;12035;49.978;8.298;2023-01-16T02:55:37;7.90;74.10
23713;DHT22;12035;49.978;8.298;2023-01-16T03:00:36;7.90;74.10
23713;DHT22;12035;49.978;8.298;2023-01-16T03:05:42;7.80;74.10
23713;DHT22;12035;49.978;8.298;2023-01-16T03:11:00;7.80;74.00
23713;DHT22;12035;49.978;8.298;2023-01-16T03:16:17;7.80;74.00
23713;DHT22;12035;49.978;8.298;2023-01-16T03:21:27;7.80;74.10
23713;DHT22;12035;49.978;8.298;2023-01-16T03:26:33;7.70;73.50
23713;DHT22;12035;49.978;8.298;2023-01-16T03:31:37;7.70;73.20
23713;DHT22;12035;49.978;8.298;2023-01-16T03:36:42;7.60;73.00
23713;DHT22;12035;49.978;8.298;2023-01-16T03:41:43;7.60;73.90
23713;DHT22;12035;49.978;8.298;2023-01-16T03:46:47;7.50;73.20
23713;DHT22;12035;49.978;8.298;2023-01-16T03:51:49;7.50;73.20
23713;DHT22;12035;49.978;8.298;2023-01-16T03:56:52;7.50;72.90
23713;DHT22;12035;49.978;8.298;2023-01-16T04:01:55;7.40;72.90
23713;DHT22;12035;49.978;8.298;2023-01-16T04:06:59;7.30;72.90
23713;DHT22;12035;49.978;8.298;2023-01-16T04:12:01;7.20;72.90
23713;DHT22;12035;49.978;8.298;2023-01-16T04:17:00;7.10;72.90
23713;DHT22;12035;49.978;8.298;2023-01-16T04:22:05;7.00;73.00
23713;DHT22;12035;49.978;8.298;2023-01-16T04:27:02;7.00;73.20
23713;DHT22;12035;49.978;8.298;2023-01-16T04:32:00;7.00;73.50
23713;DHT22;12035;49.978;8.298;2023-01-16T04:36:57;7.00;73.40
23713;DHT22;12035;49.978;8.298;2023-01-16T04:41:55;7.00;73.20
23713;DHT22;12035;49.978;8.298;2023-01-16T04:46:52;7.00;73.10
23713;DHT22;12035;49.978;8.298;2023-01-16T04:51:49;6.90;73.00
23713;DHT22;12035;49.978;8.298;2023-01-16T04:56:46;7.00;73.00
23713;DHT22;12035;49.978;8.298;2023-01-16T05:01:46;6.80;72.80
23713;DHT22;12035;49.978;8.298;2023-01-16T05:06:43;6.80;72.80
23713;DHT22;12035;49.978;8.298;2023-01-16T05:11:40;6.80;72.90
23713;DHT22;12035;49.978;8.298;2023-01-16T05:16:38;6.80;73.00
23713;DHT22;12035;49.978;8.298;2023-01-16T05:21:38;6.80;73.10
23713;DHT22;12035;49.978;8.298;2023-01-16T05:26:36;6.80;73.00
23713;DHT22;12035;49.978;8.298;2023-01-16T05:31:34;6.80;73.00
23713;DHT22;12035;49.978;8.298;2023-01-16T05:36:31;6.80;73.00
23713;DHT22;12035;49.978;8.298;2023-01-16T05:41:30;6.80;72.80
23713;DHT22;12035;49.978;8.298;2023-01-16T05:46:27;6.80;72.60
23713;DHT22;12035;49.978;8.298;2023-01-16T05:51:24;6.80;72.50
23713;DHT22;12035;49.978;8.298;2023-01-16T05:56:22;6.80;72.50
23713;DHT22;12035;49.978;8.298;2023-01-16T06:01:21;6.70;72.50
23713;DHT22;12035;49.978;8.298;2023-01-16T06:06:18;6.70;72.50
23713;DHT22;12035;49.978;8.298;2023-01-16T06:11:15;6.70;72.50
23713;DHT22;12035;49.978;8.298;2023-01-16T06:16:12;6.70;72.60
23713;DHT22;12035;49.978;8.298;2023-01-16T06:21:11;6.70;72.50
23713;DHT22;12035;49.978;8.298;2023-01-16T06:26:08;6.70;72.50
23713;DHT22;12035;49.978;8.298;2023-01-16T06:31:07;6.70;72.50
23713;DHT22;12035;49.978;8.298;2023-01-16T06:36:31;6.70;72.40
23713;DHT22;12035;49.978;8.298;2023-01-16T06:41:29;6.60;72.40
23713;DHT22;12035;49.978;8.298;2023-01-16T06:46:26;6.70;72.50
23713;DHT22;12035;49.978;8.298;2023-01-16T06:51:25;6.70;72.40
23713;DHT22;12035;49.978;8.298;2023-01-16T06:56:22;6.70;72.40
23713;DHT22;12035;49.978;8.298;2023-01-16T07:01:19;6.70;72.40
23713;DHT22;12035;49.978;8.298;2023-01-16T07:06:17;6.70;72.30
23713;DHT22;12035;49.978;8.298;2023-01-16T07:11:15;6.70;72.30
23713;DHT22;12035;49.978;8.298;2023-01-16T07:16:14;6.80;72.40
23713;DHT22;12035;49.978;8.298;2023-01-16T07:21:34;6.80;72.50
23713;DHT22;12035;49.978;8.298;2023-01-16T07:26:56;6.80;72.50
23713;DHT22;12035;49.978;8.298;2023-01-16T07:31:55;6.80;72.40
23713;DHT22;12035;49.978;8.298;2023-01-16T07:36:53;6.80;72.40
23713;DHT22;12035;49.978;8.298;2023-01-16T07:41:52;6.80;72.50
23713;DHT22;12035;49.978;8.298;2023-01-16T07:46:49;6.80;72.60
23713;DHT22;12035;49.978;8.298;2023-01-16T07:51:50;6.90;72.60
23713;DHT22;12035;49.978;8.298;2023-01-16T07:56:57;6.80;72.60
23713;DHT22;12035;49.978;8.298;2023-01-16T08:02:11;6.90;72.80
23713;DHT22;12035;49.978;8.298;2023-01-16T08:07:22;6.90;73.00
23713;DHT22;12035;49.978;8.298;2023-01-16T08:12:20;6.90;73.00
23713;DHT22;12035;49.978;8.298;2023-01-16T08:17:18;7.00;73.10
23713;DHT22;12035;49.978;8.298;2023-01-16T08:22:16;7.00;73.00
23713;DHT22;12035;49.978;8.298;2023-01-16T08:27:13;7.00;72.80
23713;DHT22;12035;49.978;8.298;2023-01-16T08:32:13;7.00;72.50
23713;DHT22;12035;49.978;8.298;2023-01-16T08:37:09;7.10;72.20
23713;DHT22;12035;49.978;8.298;2023-01-16T08:42:07;7.20;72.10
23713;DHT22;12035;49.978;8.298;2023-01-16T08:47:24;7.20;72.40
23713;DHT22;12035;49.978;8.298;2023-01-16T08:52:38;7.30;72.60
23713;DHT22;12035;49.978;8.298;2023-01-16T08:57:36;7.30;72.60
23713;DHT22;12035;49.978;8.298;2023-01-16T09:02:38;7.30;72.20
23713;DHT22;12035;49.978;8.298;2023-01-16T09:07:35;7.40;72.60
23713;DHT22;12035;49.978;8.298;2023-01-16T09:12:32;7.40;72.60
23713;DHT22;12035;49.978;8.298;2023-01-16T09:17:48;7.50;72.60
23713;DHT22;12035;49.978;8.298;2023-01-16T09:22:45;7.50;72.80
23713;DHT22;12035;49.978;8.298;2023-01-16T09:27:43;7.50;72.90
23713;DHT22;12035;49.978;8.298;2023-01-16T09:32:43;7.50;72.80
23713;DHT22;12035;49.978;8.298;2023-01-16T09:37:43;7.40;72.80
23713;DHT22;12035;49.978;8.298;2023-01-16T09:42:51;7.40;73.50
23713;DHT22;12035;49.978;8.298;2023-01-16T09:48:14;7.40;73.00
23713;DHT22;12035;49.978;8.298;2023-01-16T09:53:21;7.40;73.20
23713;DHT22;12035;49.978;8.298;2023-01-16T09:58:47;7.40;73.40
23713;DHT22;12035;49.978;8.298;2023-01-16T10:03:45;7.40;73.40
23713;DHT22;12035;49.978;8.298;2023-01-16T10:09:02;7.30;73.50
23713;DHT22;12035;49.978;8.298;2023-01-16T10:14:23;7.30;73.70
23713;DHT22;12035;49.978;8.298;2023-01-16T10:19:40;7.40;74.00
23713;DHT22;12035;49.978;8.298;2023-01-16T10:24:53;7.30;74.60
23713;DHT22;12035;49.978;8.298;2023-01-16T10:30:02;7.30;75.00
23713;DHT22;12035;49.978;8.298;2023-01-16T10:35:04;7.30;75.20
23713;DHT22;12035;49.978;8.298;2023-01-16T10:40:12;7.30;75.50
23713;DHT22;12035;49.978;8.298;2023-01-16T10:45:13;7.30;75.60
23713;DHT22;12035;49.978;8.298;2023-01-16T10:50:30;7.30;75.50
23713;DHT22;12035;49.978;8.298;2023-01-16T10:55:29;7.40;75.40
23713;DHT22;12035;49.978;8.298;2023-01-16T11:00:30;7.40;75.40
23713;DHT22;12035;49.978;8.298;2023-01-16T11:05:32;7.50;75.50
23713;DHT22;12035;49.978;8.298;2023-01-16T11:10:32;7.50;75.30
23713;DHT22;12035;49.978;8.298;2023-01-16T11:15:29;7.60;75.00
23713;DHT22;12035;49.978;8.298;2023-01-16T11:20:44;7.60;75.00
23713;DHT22;12035;49.978;8.298;2023-01-16T11:25:49;7.70;75.00
23713;DHT22;12035;49.978;8.298;2023-01-16T11:30:48;7.70;74.70
23713;DHT22;12035;49.978;8.298;2023-01-16T11:35:52;7.70;74.50
23713;DHT22;12035;49.978;8.298;2023-01-16T11:40:55;7.70;74.50
23713;DHT22;12035;49.978;8.298;2023-01-16T11:45:56;7.70;74.60
23713;DHT22;12035;49.978;8.298;2023-01-16T11:50:59;7.70;74.70
23713;DHT22;12035;49.978;8.298;2023-01-16T11:56:12;7.60;74.80
23713;DHT22;12035;49.978;8.298;2023-01-16T12:01:22;7.60;75.10
23713;DHT22;12035;49.978;8.298;2023-01-16T12:06:38;7.60;75.20
23713;DHT22;12035;49.978;8.298;2023-01-16T12:12:01;7.60;75.30
23713;DHT22;12035;49.978;8.298;2023-01-16T12:17:40;7.60;75.30
23713;DHT22;12035;49.978;8.298;2023-01-16T12:23:13;7.60;75.20
23713;DHT22;12035;49.978;8.298;2023-01-16T12:28:35;7.70;75.30
23713;DHT22;12035;49.978;8.298;2023-01-16T12:33:45;7.70;75.50
23713;DHT22;12035;49.978;8.298;2023-01-16T12:38:52;7.80;75.60
23713;DHT22;12035;49.978;8.298;2023-01-16T12:44:15;8.00;75.70
23713;DHT22;12035;49.978;8.298;2023-01-16T12:49:37;8.20;75.40
23713;DHT22;12035;49.978;8.298;2023-01-16T12:54:49;8.30;74.70
23713;DHT22;12035;49.978;8.298;2023-01-16T12:59:58;8.50;74.10
23713;DHT22;12035;49.978;8.298;2023-01-16T13:05:00;8.60;73.50
23713;DHT22;12035;49.978;8.298;2023-01-16T13:10:03;8.60;73.20
23713;DHT22;12035;49.978;8.298;2023-01-16T13:15:24;8.70;72.70
23713;DHT22;12035;49.978;8.298;2023-01-16T13:20:24;8.80;72.80
23713;DHT22;12035;49.978;8.298;2023-01-16T13:25:26;8.90;72.40
23713;DHT22;12035;49.978;8.298;2023-01-16T13:30:28;9.00;71.50
23713;DHT22;12035;49.978;8.298;2023-01-16T13:35:28;9.00;70.90
23713;DHT22;12035;49.978;8.298;2023-01-16T13:40:37;9.00;71.10
23713;DHT22;12035;49.978;8.298;2023-01-16T13:45:42;9.00;71.40
23713;DHT22;12035;49.978;8.298;2023-01-16T13:50:51;9.10;71.90
23713;DHT22;12035;49.978;8.298;2023-01-16T13:55:50;9.10;72.20
23713;DHT22;12035;49.978;8.298;2023-01-16T14:01:04;9.00;72.60
23713;DHT22;12035;49.978;8.298;2023-01-16T14:06:21;9.00;73.00
23713;DHT22;12035;49.978;8.298;2023-01-16T14:11:39;8.90;73.00
23713;DHT22;12035;49.978;8.298;2023-01-16T14:16:40;8.90;73.30
23713;DHT22;12035;49.978;8.298;2023-01-16T14:21:41;8.80;73.20
23713;DHT22;12035;49.978;8.298;2023-01-16T14:26:43;8.80;73.40
23713;DHT22;12035;49.978;8.298;2023-01-16T14:31:50;8.80;73.40
23713;DHT22;12035;49.978;8.298;2023-01-16T14:36:50;8.80;73.30
23713;DHT22;12035;49.978;8.298;2023-01-16T14:41:49;8.80;73.10
23713;DHT22;12035;49.978;8.298;2023-01-16T14:47:32;8.80;73.00
23713;DHT22;12035;49.978;8.298;2023-01-16T14:53:04;8.80;73.60
23713;DHT22;12035;49.978;8.298;2023-01-16T14:58:34;8.80;72.90
23713;DHT22;12035;49.978;8.298;2023-01-16T15:03:35;8.80;73.20
23713;DHT22;12035;49.978;8.298;2023-01-16T15:08:40;8.70;73.50
23713;DHT22;12035;49.978;8.298;2023-01-16T15:13:38;8.70;74.00
23713;DHT22;12035;49.978;8.298;2023-01-16T15:18:50;8.70;74.20
23713;DHT22;12035;49.978;8.298;2023-01-16T15:24:07;8.70;74.60
23713;DHT22;12035;49.978;8.298;2023-01-16T15:29:15;8.60;75.00
23713;DHT22;12035;49.978;8.298;2023-01-16T15:34:32;8.60;75.50
23713;DHT22;12035;49.978;8.298;2023-01-16T15:39:33;8.50;75.90
23713;DHT22;12035;49.978;8.298;2023-01-16T15:44:37;8.50;76.30
23713;DHT22;12035;49.978;8.298;2023-01-16T15:50:03;8.40;76.50
23713;DHT22;12035;49.978;8.298;2023-01-16T15:55:10;8.30;76.90
23713;DHT22;12035;49.978;8.298;2023-01-16T16:00:26;8.30;77.20
23713;DHT22;12035;49.978;8.298;2023-01-16T16:05:28;8.30;77.40
23713;DHT22;12035;49.978;8.298;2023-01-16T16:10:26;8.20;77.50
23713;DHT22;12035;49.978;8.298;2023-01-16T16:15:56;8.20;78.00
23713;DHT22;12035;49.978;8.298;2023-01-16T16:21:13;8.10;78.30
23713;DHT22;12035;49.978;8.298;2023-01-16T16:26:12;8.10;78.90
23713;DHT22;12035;49.978;8.298;2023-01-16T16:31:16;8.00;79.10
23713;DHT22;12035;49.978;8.298;2023-01-16T16:36:21;8.00;79.30
23713;DHT22;12035;49.978;8.298;2023-01-16T16:41:43;8.00;79.50
23713;DHT22;12035;49.978;8.298;2023-01-16T16:46:59;7.90;79.90
23713;DHT22;12035;49.978;8.298;2023-01-16T16:52:33;7.90;80.00
23713;DHT22;12035;49.978;8.298;2023-01-16T16:57:42;7.90;79.80
23713;DHT22;12035;49.978;8.298;2023-01-16T17:02:41;7.90;80.20
23713;DHT22;12035;49.978;8.298;2023-01-16T17:07:40;7.80;79.80
23713;DHT22;12035;49.978;8.298;2023-01-16T17:12:38;7.90;79.80
23713;DHT22;12035;49.978;8.298;2023-01-16T17:17:35;7.80;79.60
23713;DHT22;12035;49.978;8.298;2023-01-16T17:22:32;7.80;79.50
23713;DHT22;12035;49.978;8.298;2023-01-16T17:27:31;7.80;79.30
23713;DHT22;12035;49.978;8.298;2023-01-16T17:32:29;7.80;79.30
23713;DHT22;12035;49.978;8.298;2023-01-16T17:37:26;7.90;78.90
23713;DHT22;12035;49.978;8.298;2023-01-16T17:42:23;7.90;78.60
23713;DHT22;12035;49.978;8.298;2023-01-16T17:47:42;7.90;78.40
23713;DHT22;12035;49.978;8.298;2023-01-16T17:52:39;7.90;78.00
23713;DHT22;12035;49.978;8.298;2023-01-16T17:57:38;7.90;77.70
23713;DHT22;12035;49.978;8.298;2023-01-16T18:02:35;7.90;77.60
23713;DHT22;12035;49.978;8.298;2023-01-16T18:07:34;7.90;77.30
23713;DHT22;12035;49.978;8.298;2023-01-16T18:12:31;7.90;77.10
23713;DHT22;12035;49.978;8.298;2023-01-16T18:17:46;7.90;77.00
23713;DHT22;12035;49.978;8.298;2023-01-16T18:22:44;7.90;76.70
23713;DHT22;12035;49.978;8.298;2023-01-16T18:27:41;7.90;76.40
23713;DHT22;12035;49.978;8.298;2023-01-16T18:32:39;7.90;76.50
23713;DHT22;12035;49.978;8.298;2023-01-16T18:37:38;7.80;76.40
23713;DHT22;12035;49.978;8.298;2023-01-16T18:42:38;7.80;76.30
23713;DHT22;12035;49.978;8.298;2023-01-16T18:47:53;7.80;76.30
23713;DHT22;12035;49.978;8.298;2023-01-16T18:53:12;7.80;76.30
23713;DHT22;12035;49.978;8.298;2023-01-16T18:58:28;7.80;76.40
23713;DHT22;12035;49.978;8.298;2023-01-16T19:03:43;7.80;76.40
23713;DHT22;12035;49.978;8.298;2023-01-16T19:08:40;7.80;76.40
23713;DHT22;12035;49.978;8.298;2023-01-16T19:13:39;7.80;76.10
23713;DHT22;12035;49.978;8.298;2023-01-16T19:18:38;7.70;76.10
23713;DHT22;12035;49.978;8.298;2023-01-16T19:23:35;7.70;76.00
23713;DHT22;12035;49.978;8.298;2023-01-16T19:28:32;7.60;76.00
23713;DHT22;12035;49.978;8.298;2023-01-16T19:33:31;7.50;76.10
23713;DHT22;12035;49.978;8.298;2023-01-16T19:38:28;7.50;76.20
23713;DHT22;12035;49.978;8.298;2023-01-16T19:43:25;7.40;76.10
23713;DHT22;12035;49.978;8.298;2023-01-16T19:48:41;7.30;76.20
23713;DHT22;12035;49.978;8.298;2023-01-16T19:53:41;7.30;76.30
23713;DHT22;12035;49.978;8.298;2023-01-16T19:58:38;7.20;76.50
23713;DHT22;12035;49.978;8.298;2023-01-16T20:03:36;7.20;76.60
23713;DHT22;12035;49.978;8.298;2023-01-16T20:08:34;7.10;76.50
23713;DHT22;12035;49.978;8.298;2023-01-16T20:13:32;7.10;76.80
23713;DHT22;12035;49.978;8.298;2023-01-16T20:18:30;7.10;76.80
23713;DHT22;12035;49.978;8.298;2023-01-16T20:23:30;7.10;76.80
23713;DHT22;12035;49.978;8.298;2023-01-16T20:28:29;7.10;76.90
23713;DHT22;12035;49.978;8.298;2023-01-16T20:33:26;7.10;77.00
23713;DHT22;12035;49.978;8.298;2023-01-16T20:38:23;7.10;77.10
23713;DHT22;12035;49.978;8.298;2023-01-16T20:43:21;7.10;77.10
23713;DHT22;12035;49.978;8.298;2023-01-16T20:48:37;7.10;77.10
23713;DHT22;12035;49.978;8.298;2023-01-16T20:53:34;7.10;77.10
23713;DHT22;12035;49.978;8.298;2023-01-16T20:58:32;7.20;77.30
23713;DHT22;12035;49.978;8.298;2023-01-16T21:03:29;7.20;77.40
23713;DHT22;12035;49.978;8.298;2023-01-16T21:08:28;7.20;77.60
23713;DHT22;12035;49.978;8.298;2023-01-16T21:13:25;7.20;77.60
23713;DHT22;12035;49.978;8.298;2023-01-16T21:18:40;7.30;77.50
23713;DHT22;12035;49.978;8.298;2023-01-16T21:23:56;7.30;77.30
23713;DHT22;12035;49.978;8.298;2023-01-16T21:28:53;7.30;76.90
23713;DHT22;12035;49.978;8.298;2023-01-16T21:33:50;7.30;76.70
23713;DHT22;12035;49.978;8.298;2023-01-16T21:38:47;7.30;76.40
23713;DHT22;12035;49.978;8.298;2023-01-16T21:43:46;7.30;75.90
23713;DHT22;12035;49.978;8.298;2023-01-16T21:49:01;7.40;75.70
23713;DHT22;12035;49.978;8.298;2023-01-16T21:53:59;7.40;75.30
23713;DHT22;12035;49.978;8.298;2023-01-16T21:59:00;7.30;75.20
23713;DHT22;12035;49.978;8.298;2023-01-16T22:04:11;7.40;75.30
23713;DHT22;12035;49.978;8.298;2023-01-16T22:09:09;7.40;75.00
23713;DHT22;12035;49.978;8.298;2023-01-16T22:14:10;7.40;74.80
23713;DHT22;12035;49.978;8.298;2023-01-16T22:19:24;7.40;74.80
23713;DHT22;12035;49.978;8.298;2023-01-16T22:24:25;7.50;74.80
23713;DHT22;12035;49.978;8.298;2023-01-16T22:29:23;7.50;74.70
23713;DHT22;12035;49.978;8.298;2023-01-16T22:34:20;7.40;74.60
23713;DHT22;12035;49.978;8.298;2023-01-16T22:39:19;7.50;74.50
23713;DHT22;12035;49.978;8.298;2023-01-16T22:44:16;7.40;74.50
23713;DHT22;12035;49.978;8.298;2023-01-16T22:49:32;7.40;74.70
23713;DHT22;12035;49.978;8.298;2023-01-16T22:54:30;7.40;74.70
23713;DHT22;12035;49.978;8.298;2023-01-16T22:59:28;7.40;74.70
23713;DHT22;12035;49.978;8.298;2023-01-16T23:04:27;7.40;74.60
23713;DHT22;12035;49.978;8.298;2023-01-16T23:09:25;7.40;74.40
23713;DHT22;12035;49.978;8.298;2023-01-16T23:14:25;7.30;74.00
23713;DHT22;12035;49.978;8.298;2023-01-16T23:19:25;7.30;74.00
23713;DHT22;12035;49.978;8.298;2023-01-16T23:24:26;7.20;73.90
23713;DHT22;12035;49.978;8.298;2023-01-16T23:29:25;7.20;73.50
23713;DHT22;12035;49.978;8.298;2023-01-16T23:34:22;7.20;73.60
23713;DHT22;12035;49.978;8.298;2023-01-16T23:39:21;7.20;73.40
23713;DHT22;12035;49.978;8.298;2023-01-16T23:44:22;7.20;72.90
23713;DHT22;12035;49.978;8.298;2023-01-16T23:49:28;7.20;72.40
23713;DHT22;12035;49.978;8.298;2023-01-16T23:54:27;7.20;71.90
23713;DHT22;12035;49.978;8.298;2023-01-16T23:59:30;7.20;71.70
